Altoona, Wisconsin
Current Conditions -  °F | °C
As of 12:56 PM on Thursday 18 Dec 2014 (Local Time) from KEAU Reporting Station
Overcast Overcast  
Wind Chill: -4°   Ceiling: 1300
Heat Index: -4°   Visibility: 10mi
Dew Point: -8°   Wind: 0mph
Humidity: 77%   Direction: NA
Pressure: 30.26"   Gusts: NA
Location:  44.81°N, 91.43°W
Report Text: KEAU 181856Z 00000KT 10SM OVC013 M04/M08 A3026 RMK AO2 SLP264 T10441078
Loading
Personal Weather Stations






























Interactive Weather Map New forecast layout! Learn more

10-Day Weather Forecast

Advertisements
Track Severe Weather on mobile